createdAt,value
2023-02-06T00:00:50.369Z,99340.63
2023-02-06T00:11:16.821Z,99332.78
2023-02-06T00:21:21.845Z,99332.19
2023-02-06T00:31:24.120Z,99347.69
2023-02-06T00:41:26.467Z,99335.63
2023-02-06T00:51:28.747Z,99333.97
2023-02-06T01:01:31.153Z,99319.72
2023-02-06T01:11:33.396Z,99334.84
2023-02-06T06:05:10.352Z,99244.50
2023-02-06T06:15:12.587Z,99233.28
2023-02-06T06:25:14.798Z,99240.69
2023-02-06T06:35:17.210Z,99267.91
2023-02-06T06:45:19.572Z,99267.13
2023-02-06T06:55:21.983Z,99264.72
2023-02-06T07:05:24.291Z,99256.66
2023-02-06T07:15:26.564Z,99253.00
2023-02-06T07:25:29.127Z,99254.56
2023-02-06T07:35:31.467Z,99239.25
2023-02-06T07:45:34.152Z,99255.84
2023-02-06T07:55:39.560Z,99261.13
2023-02-06T08:05:41.902Z,99258.38
2023-02-06T08:15:45.188Z,99281.19
2023-02-06T08:25:47.360Z,99301.06
2023-02-06T08:35:49.579Z,99298.59
2023-02-06T08:45:53.444Z,99288.69
2023-02-06T08:56:04.391Z,99261.19
2023-02-06T09:06:10.283Z,99254.53
2023-02-06T09:16:13.929Z,99238.72
2023-02-06T09:26:19.328Z,99235.81
2023-02-06T09:36:22.335Z,99238.44
2023-02-06T09:46:28.635Z,99246.53
2023-02-06T09:56:50.512Z,99241.78
2023-02-06T10:07:30.300Z,99220.22
2023-02-06T10:17:41.961Z,99209.09
2023-02-06T10:27:45.734Z,99223.09
2023-02-06T10:38:05.029Z,99228.53
2023-02-06T10:48:35.543Z,99230.03
2023-02-06T10:58:46.005Z,99247.13
2023-02-06T11:08:48.856Z,99229.53
2023-02-06T11:18:52.312Z,99217.44
2023-02-06T11:53:38.957Z,99211.28
2023-02-06T12:03:57.526Z,99197.81
2023-02-06T12:14:07.162Z,99186.41
2023-02-06T12:24:32.359Z,99172.16
2023-02-06T12:34:53.780Z,99187.63
2023-02-06T12:44:57.962Z,99177.81
2023-02-06T12:55:27.866Z,99158.09
2023-02-06T13:05:36.201Z,99148.19
2023-02-06T13:15:41.283Z,99150.91
2023-02-06T13:25:47.700Z,99144.34
2023-02-06T13:35:55.635Z,99137.53
2023-02-06T13:46:10.036Z,99142.88
2023-02-06T13:56:34.612Z,99147.59
2023-02-06T14:07:11.976Z,99165.56
2023-02-06T14:17:44.409Z,99183.78
2023-02-06T14:28:01.973Z,99191.75
2023-02-06T14:38:22.214Z,99207.47
2023-02-06T14:48:35.905Z,99230.44
2023-02-06T14:58:38.165Z,99230.38
2023-02-06T15:08:58.620Z,99255.06
2023-02-06T15:19:12.053Z,99279.84
2023-02-06T15:29:23.166Z,99299.72
2023-02-06T15:39:26.115Z,99323.28
2023-02-06T15:49:50.263Z,99320.91
2023-02-06T15:59:52.673Z,99329.56
2023-02-06T16:09:59.593Z,99332.44
2023-02-06T16:20:32.887Z,99333.91
2023-02-06T16:30:36.730Z,99348.25
2023-02-06T16:40:39.277Z,99358.97
2023-02-06T16:50:42.267Z,99361.88
2023-02-06T17:00:44.666Z,99363.66
2023-02-06T17:10:47.137Z,99375.19
2023-02-06T17:20:52.877Z,99404.28
2023-02-06T17:30:55.253Z,99416.53
2023-02-06T17:40:57.570Z,99434.66
2023-02-06T17:50:59.820Z,99444.25
2023-02-06T18:01:02.068Z,99439.66
2023-02-06T18:11:11.950Z,99442.19
2023-02-06T18:21:14.675Z,99435.44
2023-02-06T18:31:24.094Z,99419.69
2023-02-06T18:41:45.014Z,99405.84
2023-02-06T18:51:47.215Z,99411.63
2023-02-06T19:01:52.055Z,99412.50
2023-02-06T19:11:54.478Z,99422.66
2023-02-06T19:21:57.700Z,99407.91
2023-02-06T19:32:00.139Z,99426.16
2023-02-06T19:42:06.804Z,99441.28
2023-02-06T19:52:09.709Z,99466.66
2023-02-06T20:02:14.936Z,99484.88
2023-02-06T20:12:18.214Z,99506.19
2023-02-06T20:22:20.503Z,99509.81
2023-02-06T20:32:22.915Z,99531.03
2023-02-06T20:42:27.430Z,99562.44
2023-02-06T20:52:30.500Z,99593.91
2023-02-06T21:02:33.012Z,99580.34
2023-02-06T21:12:35.379Z,99594.44
2023-02-06T21:22:37.697Z,99582.94
2023-02-06T21:40:15.654Z,99600.13
2023-02-06T21:50:17.953Z,99588.09
2023-02-06T22:00:20.328Z,99560.38
2023-02-06T22:10:22.579Z,99518.66
2023-02-06T22:20:25.172Z,99531.28
2023-02-06T22:30:27.437Z,99554.63
2023-02-06T22:40:29.718Z,99539.53
2023-02-06T22:50:31.956Z,99547.38
2023-02-06T23:00:34.269Z,99519.69
2023-02-06T23:10:36.539Z,99532.69
2023-02-06T23:20:39.045Z,99550.59
2023-02-06T23:30:41.456Z,99534.22
2023-02-06T23:40:45.257Z,99555.78
2023-02-06T23:50:47.512Z,99553.66
